Time;durP1;ratioP1;P1;durP2;ratioP2;P2;SDS_P1;SDS_P2;PMS_P1;PMS_P2;Temp;Humidity;BMP_temperature;BMP_pressure;BME280_temperature;BME280_humidity;BME280_pressure;Samples;Min_cycle;Max_cycle;Signal;HPM_P1;HPM_P2
2022/10/02 00:02:39;;;;;;;2.17;1.20;;;12.10;99.90;;;;;;5051772;28;20694;-56
2022/10/02 00:05:19;;;;;;;1.25;1.15;;;12.10;99.90;;;;;;5050960;28;20037;-56
2022/10/02 00:07:52;;;;;;;3.25;1.40;;;12.10;99.90;;;;;;5051483;28;20017;-57
2022/10/02 00:10:53;;;;;;;2.65;1.40;;;12.10;99.90;;;;;;5051803;28;20124;-54
2022/10/02 00:13:45;;;;;;;2.50;1.30;;;12.10;99.90;;;;;;5051580;28;20381;-55
2022/10/02 00:16:39;;;;;;;1.88;1.60;;;12.10;99.90;;;;;;5051505;28;20047;-56
2022/10/02 00:19:05;;;;;;;;;;;12.10;99.90;;;;;;5064485;28;20032;-57
2022/10/02 00:22:01;;;;;;;2.88;1.38;;;12.10;99.90;;;;;;5070221;28;19912;-53
2022/10/02 00:24:40;;;;;;;3.75;1.50;;;12.10;99.90;;;;;;5071738;28;20025;-58
2022/10/02 00:27:19;;;;;;;3.50;1.23;;;12.10;99.90;;;;;;5071393;28;20031;-55
2022/10/02 00:29:51;;;;;;;5.32;1.40;;;12.10;99.90;;;;;;5070140;28;20050;-56
2022/10/02 00:32:36;;;;;;;4.95;1.70;;;12.20;99.90;;;;;;5070901;28;20028;-56
2022/10/02 00:35:23;;;;;;;4.63;1.38;;;12.10;99.90;;;;;;5051325;28;20025;-56
2022/10/02 00:38:18;;;;;;;2.40;1.30;;;12.10;99.90;;;;;;5060694;28;20027;-55
2022/10/02 00:40:44;;;;;;;3.28;2.63;;;12.10;99.90;;;;;;5069648;28;20541;-57
2022/10/02 00:43:15;;;;;;;5.32;1.50;;;12.10;99.90;;;;;;5071264;28;20024;-54
2022/10/02 00:45:44;;;;;;;4.00;1.40;;;12.00;99.90;;;;;;5071471;28;20507;-54
2022/10/02 00:48:31;;;;;;;2.92;1.38;;;12.10;99.90;;;;;;5071243;28;20023;-53
2022/10/02 00:51:05;;;;;;;4.93;1.55;;;12.10;99.90;;;;;;5070858;28;20429;-58
2022/10/02 00:53:52;;;;;;;9.77;1.23;;;12.10;99.90;;;;;;5071328;28;20039;-57
2022/10/02 00:56:25;;;;;;;2.75;1.50;;;12.10;99.90;;;;;;5071369;28;20027;-55
2022/10/02 00:59:14;;;;;;;2.88;1.38;;;12.10;99.90;;;;;;5071307;28;20020;-57
2022/10/02 01:01:43;;;;;;;2.83;1.40;;;12.20;99.90;;;;;;5069961;28;20170;-57
2022/10/02 01:04:19;;;;;;;4.07;1.20;;;12.20;99.90;;;;;;5071082;28;20456;-55
2022/10/02 01:06:45;;;;;;;2.65;1.20;;;12.10;99.90;;;;;;5057134;28;20025;-57
2022/10/02 01:09:11;;;;;;;4.13;1.33;;;12.10;99.90;;;;;;5051053;28;20044;-57
2022/10/02 01:11:38;;;;;;;3.05;1.80;;;12.10;99.90;;;;;;5051325;28;20045;-57
2022/10/02 01:14:04;;;;;;;10.52;1.83;;;12.00;99.90;;;;;;5057323;28;20028;-54
2022/10/02 01:16:31;;;;;;;2.80;1.40;;;12.00;99.90;;;;;;5071377;28;20021;-57
2022/10/02 01:18:57;;;;;;;7.13;1.90;;;12.00;99.90;;;;;;5074887;28;20039;-54
2022/10/02 01:21:30;;;;;;;5.50;1.40;;;12.00;99.90;;;;;;5074938;28;20021;-57
2022/10/02 01:24:23;;;;;;;4.50;1.48;;;12.00;99.90;;;;;;5074873;28;20028;-56
2022/10/02 01:26:49;;;;;;;2.97;1.43;;;12.00;99.90;;;;;;5074837;28;20029;-53
2022/10/02 01:29:15;;;;;;;4.22;1.35;;;12.00;99.90;;;;;;5074621;28;20158;-56
2022/10/02 01:31:41;;;;;;;8.00;2.08;;;12.00;99.90;;;;;;5073449;28;20024;-56
2022/10/02 01:34:08;;;;;;;3.05;1.58;;;12.00;99.90;;;;;;5074577;28;20055;-55
2022/10/02 01:36:34;;;;;;;3.25;1.55;;;12.00;99.90;;;;;;5074752;28;20012;-54
2022/10/02 01:39:00;;;;;;;3.10;1.33;;;11.90;99.90;;;;;;5074430;28;20108;-55
2022/10/02 01:41:26;;;;;;;1.80;1.35;;;11.90;99.90;;;;;;5074577;28;20036;-56
2022/10/02 01:43:55;;;;;;;5.97;1.80;;;11.90;99.90;;;;;;5065411;28;20021;-56
2022/10/02 01:46:26;;;;;;;4.72;1.60;;;12.00;99.90;;;;;;5054780;28;20017;-56
2022/10/02 01:48:55;;;;;;;4.13;1.40;;;11.90;99.90;;;;;;5054444;28;20135;-56
2022/10/02 01:51:36;;;;;;;6.13;1.83;;;11.90;99.90;;;;;;5055557;28;20422;-56
2022/10/02 01:54:16;;;;;;;5.40;1.40;;;11.90;99.90;;;;;;5054080;28;20029;-55
2022/10/02 01:57:11;;;;;;;4.43;2.22;;;11.80;99.90;;;;;;5054301;28;20016;-52
2022/10/02 01:59:36;;;;;;;6.18;1.55;;;11.90;99.90;;;;;;5054249;28;20025;-58
2022/10/02 02:02:32;;;;;;;3.00;1.50;;;11.90;99.90;;;;;;5054243;28;20806;-57
2022/10/02 02:05:13;;;;;;;4.50;1.70;;;11.90;99.90;;;;;;5054226;28;20423;-54
2022/10/02 02:07:42;;;;;;;6.30;1.55;;;11.90;99.90;;;;;;5069373;28;20021;-57
2022/10/02 02:10:13;;;;;;;6.13;1.75;;;12.00;99.90;;;;;;5073485;28;20060;-57
2022/10/02 02:12:38;;;;;;;3.78;1.60;;;11.90;99.90;;;;;;5074060;28;20029;-55
2022/10/02 02:15:11;;;;;;;2.13;1.27;;;11.90;99.90;;;;;;5073922;28;20419;-57
2022/10/02 02:17:48;;;;;;;2.85;1.75;;;12.00;99.90;;;;;;5072488;28;20035;-55
2022/10/02 02:20:33;;;;;;;3.42;1.35;;;12.00;99.90;;;;;;5073897;28;20112;-56
2022/10/02 02:23:07;;;;;;;2.97;1.25;;;12.00;99.90;;;;;;5073762;28;20025;-52
2022/10/02 02:25:37;;;;;;;5.40;1.90;;;12.00;99.90;;;;;;5073955;28;20021;-55
2022/10/02 02:28:07;;;;;;;4.07;1.50;;;12.00;99.90;;;;;;5073011;28;20029;-53
2022/10/02 02:30:36;;;;;;;4.95;1.70;;;12.00;99.90;;;;;;5062628;28;20032;-56
2022/10/02 02:33:19;;;;;;;5.68;1.58;;;12.00;99.90;;;;;;5053446;28;20029;-56
2022/10/02 02:35:49;;;;;;;8.40;2.03;;;11.90;99.90;;;;;;5053354;28;20035;-56
2022/10/02 02:38:27;;;;;;;3.10;1.70;;;11.90;99.90;;;;;;5054705;28;20027;-54
2022/10/02 02:40:58;;;;;;;2.53;1.60;;;11.80;99.90;;;;;;5053265;28;20036;-54
2022/10/02 02:43:30;;;;;;;4.90;1.95;;;11.90;99.90;;;;;;5053588;28;20108;-52
2022/10/02 02:46:00;;;;;;;7.05;1.77;;;11.90;99.90;;;;;;5053190;28;20052;-57
2022/10/02 02:48:45;;;;;;;6.18;1.90;;;11.80;99.90;;;;;;5053581;28;20024;-55
2022/10/02 02:51:16;;;;;;;3.63;1.80;;;11.80;99.90;;;;;;5053410;28;20021;-57
2022/10/02 02:54:22;;;;;;;8.07;2.00;;;11.80;99.90;;;;;;5066167;28;20028;-54
2022/10/02 02:56:56;;;;;;;3.75;1.65;;;11.80;99.90;;;;;;5072899;28;20041;-55
2022/10/02 02:59:25;;;;;;;8.27;1.77;;;11.80;99.90;;;;;;5071967;28;20044;-55
2022/10/02 03:01:50;;;;;;;6.38;1.77;;;11.80;99.90;;;;;;5071450;28;20517;-54
2022/10/02 03:04:16;;;;;;;5.30;2.55;;;11.80;99.90;;;;;;5073207;28;20044;-52
2022/10/02 03:06:44;;;;;;;6.57;1.77;;;11.80;99.90;;;;;;5072920;28;20077;-55
2022/10/02 03:09:16;;;;;;;3.45;1.70;;;11.80;99.90;;;;;;5053716;28;20084;-56
2022/10/02 03:12:04;;;;;;;5.97;3.28;;;11.80;99.90;;;;;;5051564;28;20113;-55
2022/10/02 03:14:57;;;;;;;4.97;1.55;;;11.80;99.90;;;;;;5052937;28;20021;-54
2022/10/02 03:17:43;;;;;;;11.47;2.07;;;11.80;99.90;;;;;;5051461;28;20029;-54
2022/10/02 03:20:40;;;;;;;3.72;1.90;;;11.80;99.90;;;;;;5052620;28;20074;-57
2022/10/02 03:23:54;;;;;;;2.50;1.45;;;11.80;99.90;;;;;;5064879;28;20036;-54
2022/10/02 03:26:44;;;;;;;4.38;1.70;;;11.80;99.90;;;;;;5072158;28;20032;-56
2022/10/02 03:29:23;;;;;;;3.22;1.67;;;11.80;99.90;;;;;;5072471;28;20099;-54
2022/10/02 03:31:50;;;;;;;4.82;1.63;;;11.80;99.90;;;;;;5072154;28;20039;-55
2022/10/02 03:34:17;;;;;;;5.50;1.65;;;11.80;99.90;;;;;;5072648;28;20490;-53
2022/10/02 03:36:45;;;;;;;4.18;2.20;;;11.80;99.90;;;;;;5065831;28;20029;-57
2022/10/02 03:39:11;;;;;;;6.32;1.55;;;11.80;99.90;;;;;;5052491;28;20074;-55
2022/10/02 03:41:37;;;;;;;5.95;1.80;;;11.80;99.90;;;;;;5051962;28;20024;-55
2022/10/02 03:44:02;;;;;;;6.82;1.80;;;11.80;99.90;;;;;;5052156;28;20178;-56
2022/10/02 03:46:28;;;;;;;6.13;2.08;;;11.80;99.90;;;;;;5051115;28;20016;-55
2022/10/02 03:49:00;;;;;;;5.38;1.50;;;11.80;99.90;;;;;;5051475;28;20103;-57
2022/10/02 03:51:26;;;;;;;5.05;1.67;;;11.70;99.90;;;;;;5051776;28;20048;-56
2022/10/02 03:53:51;;;;;;;4.40;1.63;;;11.70;99.90;;;;;;5051270;28;20118;-57
2022/10/02 03:56:33;;;;;;;7.97;1.90;;;11.70;99.90;;;;;;5051112;28;20164;-54
2022/10/02 03:59:01;;;;;;;3.58;1.70;;;11.70;99.90;;;;;;5049945;28;20448;-56
2022/10/02 04:01:35;;;;;;;6.82;1.98;;;11.70;99.90;;;;;;5051537;28;20017;-54
2022/10/02 04:04:08;;;;;;;5.75;1.55;;;11.70;99.90;;;;;;5051716;28;20060;-57
2022/10/02 04:06:34;;;;;;;5.60;1.50;;;11.70;99.90;;;;;;5059531;28;20367;-57
2022/10/02 04:09:03;;;;;;;6.03;1.73;;;11.70;99.90;;;;;;5071443;28;20048;-56
2022/10/02 04:11:42;;;;;;;6.78;1.63;;;11.70;99.90;;;;;;5071851;28;20035;-55
2022/10/02 04:14:18;;;;;;;4.90;1.70;;;11.70;99.90;;;;;;5071821;28;20035;-55
2022/10/02 04:16:56;;;;;;;4.15;1.67;;;11.60;99.90;;;;;;5071544;28;20029;-56
2022/10/02 04:19:27;;;;;;;4.93;1.85;;;11.60;99.90;;;;;;5071470;28;20116;-55
2022/10/02 04:22:07;;;;;;;3.88;1.63;;;11.60;99.90;;;;;;5071070;28;20029;-56
2022/10/02 04:24:43;;;;;;;4.38;1.88;;;11.60;99.90;;;;;;5071551;28;20042;-55
2022/10/02 04:27:35;;;;;;;2.70;1.90;;;11.60;99.90;;;;;;5071358;28;20360;-54
2022/10/02 04:30:05;;;;;;;6.30;2.40;;;11.60;99.90;;;;;;5070626;28;20037;-54
2022/10/02 04:32:36;;;;;;;6.30;2.05;;;11.60;99.90;;;;;;5071786;28;20063;-56
2022/10/02 04:35:17;;;;;;;7.85;2.00;;;11.60;99.90;;;;;;5069875;28;20107;-57
2022/10/02 04:38:07;;;;;;;8.20;2.88;;;11.50;99.90;;;;;;5057620;28;20037;-53
2022/10/02 04:41:03;;;;;;;6.22;2.25;;;11.50;99.90;;;;;;5069604;28;20112;-56
2022/10/02 04:43:38;;;;;;;6.35;2.15;;;11.50;99.90;;;;;;5071264;28;20033;-57
2022/10/02 04:46:47;;;;;;;6.57;1.90;;;11.60;99.90;;;;;;5071262;28;20479;-55
2022/10/02 04:49:48;;;;;;;5.80;2.00;;;11.60;99.90;;;;;;5070917;28;20013;-55
2022/10/02 04:52:31;;;;;;;5.10;1.83;;;11.60;99.90;;;;;;5072058;28;20447;-57
2022/10/02 04:55:33;;;;;;;7.50;2.10;;;11.60;99.90;;;;;;5070762;28;20021;-56
2022/10/02 04:58:18;;;;;;;9.13;2.08;;;11.70;99.90;;;;;;5055370;28;20021;-55
2022/10/02 05:01:17;;;;;;;7.10;2.03;;;11.70;99.90;;;;;;5055267;28;20036;-55
2022/10/02 05:03:52;;;;;;;3.85;1.77;;;11.70;99.90;;;;;;5055287;28;20056;-56
2022/10/02 05:06:39;;;;;;;14.02;3.35;;;11.70;99.90;;;;;;5055384;28;20023;-55
2022/10/02 05:09:08;;;;;;;3.60;1.80;;;11.70;99.90;;;;;;5054917;28;20055;-54
2022/10/02 05:11:46;;;;;;;8.27;1.90;;;11.70;99.90;;;;;;5055277;28;20082;-56
2022/10/02 05:14:27;;;;;;;5.85;2.63;;;11.60;99.90;;;;;;5055308;28;20061;-57
2022/10/02 05:16:57;;;;;;;6.45;1.92;;;11.60;99.90;;;;;;5054931;28;20075;-56
2022/10/02 05:19:56;;;;;;;4.72;1.80;;;11.70;99.90;;;;;;5069956;28;20029;-57
2022/10/02 05:22:45;;;;;;;6.03;1.92;;;11.70;99.90;;;;;;5074988;28;20060;-55
2022/10/02 05:25:16;;;;;;;9.00;2.17;;;11.70;99.90;;;;;;5075217;28;20029;-56
2022/10/02 05:27:48;;;;;;;4.88;2.25;;;11.60;99.90;;;;;;5074683;28;20033;-55
2022/10/02 05:30:16;;;;;;;5.93;2.53;;;11.70;99.90;;;;;;5074747;28;20130;-53
2022/10/02 05:32:48;;;;;;;4.88;2.30;;;11.70;99.90;;;;;;5073196;28;20031;-56
2022/10/02 05:35:23;;;;;;;9.32;2.75;;;11.80;99.90;;;;;;5074747;28;20059;-56
2022/10/02 05:38:25;;;;;;;5.68;2.22;;;11.80;99.90;;;;;;5074635;28;20025;-57
2022/10/02 05:41:09;;;;;;;8.00;1.90;;;11.70;99.90;;;;;;5074517;28;20024;-54
2022/10/02 05:43:43;;;;;;;4.05;1.90;;;11.80;99.90;;;;;;5074594;28;20013;-55
2022/10/02 05:46:15;;;;;;;6.00;2.05;;;11.80;99.90;;;;;;5074236;28;20028;-55
2022/10/02 05:48:45;;;;;;;7.45;2.72;;;11.80;99.90;;;;;;5073918;28;20067;-56
2022/10/02 05:51:40;;;;;;;5.03;3.05;;;11.90;99.90;;;;;;5074563;28;20040;-52
2022/10/02 05:54:19;;;;;;;4.28;1.95;;;12.00;99.90;;;;;;5074239;28;20111;-56
2022/10/02 05:57:03;;;;;;;3.70;1.80;;;11.90;99.90;;;;;;5074148;28;20025;-54
2022/10/02 05:59:38;;;;;;;7.13;2.00;;;12.10;99.90;;;;;;5074447;28;20116;-55
2022/10/02 06:02:32;;;;;;;3.67;1.85;;;12.20;99.90;;;;;;5069883;28;20033;-55
2022/10/02 06:05:28;;;;;;;7.05;2.15;;;12.20;99.90;;;;;;5054170;28;20044;-53
2022/10/02 06:08:01;;;;;;;4.63;2.13;;;12.20;99.90;;;;;;5064332;28;20036;-56
2022/10/02 06:10:36;;;;;;;7.32;2.08;;;12.30;99.90;;;;;;5054939;28;20036;-54
2022/10/02 06:13:14;;;;;;;5.88;2.10;;;12.30;99.90;;;;;;5060732;28;20028;-53
2022/10/02 06:16:03;;;;;;;3.35;1.73;;;12.30;99.90;;;;;;5073892;28;20484;-55
2022/10/02 06:18:32;;;;;;;5.43;2.08;;;12.40;99.90;;;;;;5073770;28;20032;-56
2022/10/02 06:21:24;;;;;;;8.95;2.55;;;12.40;99.90;;;;;;5073738;28;20514;-55
2022/10/02 06:23:54;;;;;;;4.90;2.25;;;12.40;99.90;;;;;;5073810;28;20031;-55
2022/10/02 06:26:32;;;;;;;5.75;1.75;;;12.40;99.90;;;;;;5073958;28;20029;-57
2022/10/02 06:29:04;;;;;;;3.95;2.28;;;12.40;99.90;;;;;;5071816;28;20365;-55
2022/10/02 06:31:40;;;;;;;14.60;1.98;;;12.50;99.90;;;;;;5073638;28;20024;-53
2022/10/02 06:34:13;;;;;;;6.25;2.28;;;12.50;99.90;;;;;;5073431;28;20067;-55
2022/10/02 06:37:04;;;;;;;9.47;2.53;;;12.50;99.90;;;;;;5073690;28;20028;-57
2022/10/02 06:39:38;;;;;;;5.70;2.20;;;12.50;99.90;;;;;;5070593;28;20032;-59
2022/10/02 06:42:15;;;;;;;4.00;2.03;;;12.60;99.90;;;;;;5053320;28;20028;-58
2022/10/02 06:44:53;;;;;;;10.23;1.90;;;12.70;99.90;;;;;;5053324;28;20025;-54
2022/10/02 06:47:35;;;;;;;3.42;1.80;;;12.70;99.90;;;;;;5053405;28;20024;-57
2022/10/02 06:50:21;;;;;;;6.20;1.80;;;12.70;99.90;;;;;;5059863;28;20032;-56
2022/10/02 06:52:54;;;;;;;10.65;2.92;;;12.80;99.90;;;;;;5068604;28;20036;-55
2022/10/02 06:55:28;;;;;;;8.68;1.85;;;12.70;99.90;;;;;;5053295;28;20368;-54
2022/10/02 06:58:17;;;;;;;7.35;1.85;;;12.70;99.90;;;;;;5051504;28;20025;-55
2022/10/02 07:01:11;;;;;;;9.98;1.88;;;12.80;99.90;;;;;;5065025;28;20119;-55
2022/10/02 07:03:49;;;;;;;5.45;2.72;;;12.90;99.90;;;;;;5072618;28;20043;-53
2022/10/02 07:06:29;;;;;;;7.72;2.25;;;12.80;99.90;;;;;;5072938;28;20013;-55
2022/10/02 07:09:07;;;;;;;5.20;1.88;;;12.90;99.90;;;;;;5072516;28;20101;-54
2022/10/02 07:11:57;;;;;;;5.80;2.72;;;12.90;99.90;;;;;;5053698;28;20118;-56
2022/10/02 07:14:36;;;;;;;6.35;2.17;;;12.90;99.90;;;;;;5052342;28;21036;-57
2022/10/02 07:17:29;;;;;;;10.05;2.67;;;12.90;99.90;;;;;;5052359;28;20013;-56
2022/10/02 07:20:01;;;;;;;7.85;2.22;;;12.90;99.90;;;;;;5053745;28;20423;-55
2022/10/02 07:22:29;;;;;;;6.38;2.05;;;13.00;99.90;;;;;;5052491;28;20017;-56
2022/10/02 07:25:24;;;;;;;4.68;1.90;;;13.00;99.90;;;;;;5052626;28;20109;-55
2022/10/02 07:27:57;;;;;;;;;;;13.10;99.90;;;;;;5060677;28;20087;-54
2022/10/02 07:30:24;;;;;;;3.78;1.92;;;13.10;99.90;;;;;;5052436;28;19909;-51
2022/10/02 07:33:28;;;;;;;6.93;2.38;;;13.10;99.90;;;;;;5052338;28;20063;-56
2022/10/02 07:36:10;;;;;;;6.07;2.10;;;13.10;99.90;;;;;;5052258;28;20036;-56
2022/10/02 07:38:56;;;;;;;5.53;2.20;;;13.10;99.90;;;;;;5070069;28;20048;-57
2022/10/02 07:41:27;;;;;;;4.40;2.10;;;13.00;99.90;;;;;;5074753;28;20480;-57
2022/10/02 07:44:13;;;;;;;3.03;1.70;;;12.90;99.90;;;;;;5068415;28;20040;-56
2022/10/02 07:46:53;;;;;;;11.43;2.70;;;12.90;99.90;;;;;;5061103;28;20103;-54
2022/10/02 07:49:28;;;;;;;5.38;2.15;;;12.80;99.90;;;;;;5067612;28;20078;-55
2022/10/02 07:52:01;;;;;;;9.35;2.70;;;12.80;99.90;;;;;;5065245;28;20357;-53
2022/10/02 07:54:41;;;;;;;6.28;2.78;;;12.70;99.90;;;;;;5076312;28;20348;-53
2022/10/02 07:57:29;;;;;;;11.23;2.72;;;12.60;99.90;;;;;;5071756;28;20033;-56
2022/10/02 08:00:14;;;;;;;11.43;2.17;;;12.50;99.90;;;;;;5057162;28;20419;-55
2022/10/02 08:02:52;;;;;;;4.15;2.05;;;12.50;99.90;;;;;;5064617;28;20380;-53
2022/10/02 08:05:32;;;;;;;11.05;3.03;;;12.40;99.90;;;;;;5061679;28;20696;-55
2022/10/02 08:08:46;;;;;;;11.93;2.50;;;12.30;99.90;;;;;;5063920;28;20021;-53
2022/10/02 08:11:18;;;;;;;;;;;12.30;99.90;;;;;;5049687;28;20045;-57
2022/10/02 08:13:49;;;;;;;7.25;2.22;;;12.30;99.90;;;;;;5060569;28;19905;-55
2022/10/02 08:16:19;;;;;;;9.00;2.88;;;12.30;99.90;;;;;;5060330;28;20033;-53
2022/10/02 08:18:51;;;;;;;9.00;2.05;;;12.30;99.90;;;;;;5060426;28;20029;-56
2022/10/02 08:21:20;;;;;;;9.57;2.10;;;12.30;99.90;;;;;;5060198;28;20032;-54
2022/10/02 08:23:51;;;;;;;6.53;2.90;;;12.30;99.90;;;;;;5061155;28;20020;-55
2022/10/02 08:26:37;;;;;;;6.00;2.95;;;12.20;99.90;;;;;;5061416;28;20020;-54
2022/10/02 08:29:16;;;;;;;4.32;2.35;;;12.20;99.90;;;;;;5051388;28;20040;-56
2022/10/02 08:31:42;;;;;;;3.85;1.65;;;12.10;99.90;;;;;;5058802;28;20035;-57
2022/10/02 08:34:19;;;;;;;5.22;1.83;;;12.00;99.90;;;;;;5060423;28;20029;-56
2022/10/02 08:37:09;;;;;;;5.28;2.13;;;11.90;99.90;;;;;;5060284;28;20029;-56
2022/10/02 08:39:53;;;;;;;5.35;1.30;;;11.90;99.90;;;;;;5061518;28;20056;-52
2022/10/02 08:42:56;;;;;;;4.07;1.65;;;11.80;99.90;;;;;;5060093;28;20103;-56
2022/10/02 08:46:03;;;;;;;4.93;1.48;;;11.70;99.90;;;;;;5061822;28;20020;-56
2022/10/02 08:48:54;;;;;;;6.00;1.40;;;11.60;99.90;;;;;;5059921;28;20044;-55
2022/10/02 08:51:47;;;;;;;2.35;1.65;;;11.50;99.90;;;;;;5059613;28;20017;-53
2022/10/02 08:54:31;;;;;;;2.25;1.42;;;11.50;99.90;;;;;;5061492;28;20013;-54
2022/10/02 08:57:20;;;;;;;3.72;1.95;;;11.40;99.90;;;;;;5058957;28;20029;-56
2022/10/02 09:00:18;;;;;;;2.22;1.30;;;11.40;99.90;;;;;;5050927;28;20076;-56
2022/10/02 09:03:04;;;;;;;6.50;1.30;;;11.40;99.90;;;;;;5061413;28;20481;-54
2022/10/02 09:06:10;;;;;;;3.30;1.40;;;11.40;99.90;;;;;;5058713;28;20100;-54
2022/10/02 09:09:01;;;;;;;1.33;1.10;;;11.50;99.90;;;;;;5048888;28;20496;-53
2022/10/02 09:11:27;;;;;;;9.25;1.70;;;11.50;99.90;;;;;;5050622;28;20580;-51
2022/10/02 09:14:16;;;;;;;2.80;1.15;;;11.50;99.90;;;;;;5049955;28;20048;-55
2022/10/02 09:16:56;;;;;;;7.32;1.70;;;11.50;99.90;;;;;;5049911;28;20032;-51
2022/10/02 09:19:59;;;;;;;2.00;1.52;;;11.60;99.90;;;;;;5061862;28;20388;-51
2022/10/02 09:22:46;;;;;;;1.52;1.42;;;11.70;99.90;;;;;;5071080;28;20028;-51
2022/10/02 09:25:34;;;;;;;2.50;1.60;;;11.70;99.90;;;;;;5070895;28;20070;-54
2022/10/02 09:28:26;;;;;;;3.90;2.17;;;11.80;99.90;;;;;;5070468;28;20044;-55
2022/10/02 09:31:13;;;;;;;4.22;1.70;;;11.80;99.90;;;;;;5050561;28;20021;-55
2022/10/02 09:33:45;;;;;;;3.95;1.95;;;11.90;99.90;;;;;;5050819;28;20085;-57
2022/10/02 09:36:27;;;;;;;4.80;2.20;;;12.00;99.90;;;;;;5069690;28;20036;-53
2022/10/02 09:38:52;;;;;;;5.90;2.38;;;12.00;99.90;;;;;;5068986;28;20025;-56
2022/10/02 09:41:27;;;;;;;3.92;1.90;;;12.00;99.90;;;;;;5055254;28;20513;-56
2022/10/02 09:44:21;;;;;;;4.38;1.85;;;12.00;99.90;;;;;;5054103;28;20371;-54
2022/10/02 09:47:24;;;;;;;1.88;1.58;;;12.00;99.90;;;;;;5054182;28;20017;-55
2022/10/02 09:50:35;;;;;;;3.50;1.70;;;12.10;99.90;;;;;;5054369;28;20021;-52
2022/10/02 09:53:36;;;;;;;4.78;1.80;;;12.20;99.90;;;;;;5057602;28;20041;-51
2022/10/02 09:56:21;;;;;;;6.63;2.05;;;12.30;99.90;;;;;;5054298;28;20047;-56
2022/10/02 09:59:06;;;;;;;5.38;2.15;;;12.20;99.90;;;;;;5059675;28;20028;-54
2022/10/02 10:01:55;;;;;;;7.13;2.15;;;12.40;99.90;;;;;;5074185;28;20021;-54
2022/10/02 10:04:49;;;;;;;3.70;1.63;;;12.40;99.90;;;;;;5065620;28;20021;-56
2022/10/02 10:07:32;;;;;;;3.15;1.65;;;12.40;99.90;;;;;;5054149;28;20100;-55
2022/10/02 10:10:01;;;;;;;;;;;12.50;99.90;;;;;;5054191;28;20128;-54
2022/10/02 10:12:50;;;;;;;3.03;2.10;;;12.60;99.90;;;;;;5054221;28;19904;-55
2022/10/02 10:15:46;;;;;;;2.20;1.73;;;12.60;99.90;;;;;;5069133;28;20025;-51
2022/10/02 10:18:38;;;;;;;5.35;2.60;;;12.70;99.90;;;;;;5024799;28;20028;-57
2022/10/02 10:21:13;;;;;;;7.45;1.95;;;12.60;99.90;;;;;;5036205;28;20033;-51
2022/10/02 10:24:18;;;;;;;3.28;1.63;;;12.50;99.90;;;;;;5039099;28;20471;-52
2022/10/02 10:26:54;;;;;;;6.00;2.10;;;12.70;99.90;;;;;;5042585;28;20021;-57
2022/10/02 10:30:02;;;;;;;2.88;2.00;;;12.80;99.90;;;;;;5043258;28;20057;-52
2022/10/02 10:33:18;;;;;;;3.03;2.55;;;12.80;99.90;;;;;;5042118;28;20041;-54
2022/10/02 10:38:30;;;;;;;3.72;3.28;;;12.90;99.90;;;;;;5059498;28;20082;-56
2022/10/02 10:39:12;;;;;;;4.25;3.35;;;13.00;99.90;;;;;;5059573;28;20576;-53
2022/10/02 10:41:56;;;;;;;2.95;2.22;;;13.00;99.90;;;;;;5045041;28;20119;-53
2022/10/02 10:45:01;;;;;;;3.30;1.90;;;12.90;99.90;;;;;;5049928;28;20036;-56
2022/10/02 10:47:42;;;;;;;10.32;3.15;;;12.90;99.90;;;;;;5042431;28;20032;-54
2022/10/02 10:50:26;;;;;;;5.85;3.17;;;13.20;99.90;;;;;;5046089;28;20058;-56
2022/10/02 10:53:02;;;;;;;3.33;2.90;;;13.30;99.90;;;;;;5044049;28;20025;-54
2022/10/02 10:55:57;;;;;;;6.00;2.30;;;13.40;99.90;;;;;;5061762;28;20049;-54
2022/10/02 10:58:42;;;;;;;5.35;2.53;;;13.50;99.90;;;;;;5047926;28;20079;-56
2022/10/02 11:01:17;;;;;;;4.28;2.15;;;13.50;99.90;;;;;;5057646;28;20025;-53
2022/10/02 11:03:57;;;;;;;7.28;2.60;;;13.70;99.90;;;;;;5041809;28;20025;-54
2022/10/02 11:06:34;;;;;;;3.10;2.20;;;13.70;99.90;;;;;;5041540;28;20472;-54
2022/10/02 11:09:25;;;;;;;4.53;2.08;;;13.80;99.90;;;;;;5040439;28;20260;-56
2022/10/02 11:12:05;;;;;;;2.28;1.80;;;13.40;99.90;;;;;;5042065;28;20099;-52
2022/10/02 11:15:08;;;;;;;3.83;2.28;;;13.40;99.90;;;;;;5041933;28;20032;-55
2022/10/02 11:17:43;;;;;;;5.82;2.15;;;13.40;99.90;;;;;;5043417;28;20029;-56
2022/10/02 11:20:26;;;;;;;2.55;1.88;;;13.40;99.90;;;;;;5041717;28;20542;-53
2022/10/02 11:23:01;;;;;;;8.73;2.28;;;13.30;99.90;;;;;;5059565;28;20070;-51
2022/10/02 11:25:52;;;;;;;4.40;2.10;;;13.30;99.90;;;;;;5061919;28;20610;-57
2022/10/02 11:28:45;;;;;;;8.65;2.97;;;13.20;99.90;;;;;;5059548;28;20040;-55
2022/10/02 11:31:16;;;;;;;7.07;2.97;;;13.20;99.90;;;;;;5043128;28;20364;-53
2022/10/02 11:34:18;;;;;;;7.60;3.03;;;13.20;99.90;;;;;;5041363;28;20029;-56
2022/10/02 11:36:53;;;;;;;5.80;2.65;;;13.30;99.90;;;;;;5050776;28;20470;-57
2022/10/02 11:39:40;;;;;;;11.63;3.47;;;13.30;99.90;;;;;;5055416;28;20032;-56
2022/10/02 11:42:32;;;;;;;7.18;2.70;;;13.20;99.90;;;;;;5041580;28;20025;-57
2022/10/02 11:45:16;;;;;;;1.63;1.42;;;13.20;99.90;;;;;;5041352;28;20029;-54
2022/10/02 11:47:54;;;;;;;6.32;2.15;;;13.20;99.90;;;;;;5041894;28;20025;-53
2022/10/02 11:50:40;;;;;;;5.82;2.67;;;13.30;99.90;;;;;;5041935;28;20036;-54
2022/10/02 11:53:21;;;;;;;11.20;3.60;;;13.40;99.90;;;;;;5041011;28;20039;-55
2022/10/02 11:56:02;;;;;;;8.07;2.25;;;13.40;99.90;;;;;;5040471;28;20082;-55
2022/10/02 11:58:27;;;;;;;5.97;1.77;;;13.50;99.90;;;;;;5040707;28;20048;-57
2022/10/02 12:01:15;;;;;;;2.60;1.60;;;13.50;99.90;;;;;;5041182;28;20556;-52
2022/10/02 12:03:56;;;;;;;3.00;1.90;;;13.60;99.90;;;;;;5041531;28;20551;-53
2022/10/02 12:07:20;;;;;;;3.88;1.85;;;13.60;99.90;;;;;;5041757;28;20021;-55
2022/10/02 12:10:02;;;;;;;6.13;2.40;;;13.60;99.90;;;;;;5020960;28;20059;-55
2022/10/02 12:12:39;;;;;;;5.38;1.85;;;13.60;99.90;;;;;;5045999;28;20275;-53
2022/10/02 12:15:45;;;;;;;2.40;1.65;;;13.50;99.90;;;;;;5041348;28;20385;-54
2022/10/02 12:18:22;;;;;;;5.60;1.75;;;13.50;99.90;;;;;;5042194;28;20032;-55
2022/10/02 12:27:41;;;;;;;4.68;1.73;;;13.40;99.90;;;;;;5039899;28;20048;-55
2022/10/02 12:30:10;;;;;;;6.03;2.65;;;13.40;99.90;;;;;;5058228;28;20032;-55
2022/10/02 12:32:44;;;;;;;11.40;5.45;;;13.40;99.90;;;;;;5056128;28;20053;-56
2022/10/02 12:35:36;;;;;;;5.68;2.40;;;13.60;99.90;;;;;;5038858;28;20037;-57
2022/10/02 12:38:24;;;;;;;11.90;3.17;;;13.80;99.90;;;;;;5039783;28;20021;-55
2022/10/02 12:41:07;;;;;;;8.23;2.65;;;13.90;99.90;;;;;;5039079;28;20039;-57
2022/10/02 12:44:10;;;;;;;6.50;3.05;;;14.00;99.90;;;;;;5040109;28;20058;-58
2022/10/02 12:46:48;;;;;;;5.65;2.63;;;14.20;99.90;;;;;;5039721;28;20025;-56
2022/10/02 12:49:29;;;;;;;5.13;2.38;;;14.10;99.90;;;;;;5040276;28;20028;-58
2022/10/02 12:52:33;;;;;;;5.90;3.08;;;14.00;99.90;;;;;;5041148;28;20029;-55
2022/10/02 12:55:22;;;;;;;13.57;3.28;;;13.80;99.90;;;;;;5047556;28;20037;-54
2022/10/02 12:58:00;;;;;;;6.15;3.42;;;13.70;99.90;;;;;;5038572;28;20113;-58
2022/10/02 13:00:59;;;;;;;10.88;4.50;;;13.50;99.90;;;;;;5038445;28;20036;-57
2022/10/02 13:03:39;;;;;;;6.28;4.07;;;13.40;99.90;;;;;;5039209;28;20104;-55
2022/10/02 13:06:32;;;;;;;10.43;2.83;;;13.60;99.90;;;;;;5040027;28;20033;-57
2022/10/02 13:09:11;;;;;;;6.90;2.83;;;13.60;99.90;;;;;;5040034;28;20036;-57
2022/10/02 13:12:04;;;;;;;6.32;2.10;;;13.60;99.90;;;;;;5040529;28;20029;-58
2022/10/02 13:14:48;;;;;;;6.78;2.40;;;13.90;99.90;;;;;;5043896;28;20029;-57
2022/10/02 13:17:29;;;;;;;6.38;2.03;;;14.20;99.90;;;;;;5044261;28;20028;-56
2022/10/02 13:19:57;;;;;;;6.75;2.50;;;14.50;99.90;;;;;;5044389;28;20377;-58
2022/10/02 13:23:01;;;;;;;5.82;2.20;;;15.10;99.90;;;;;;5044321;28;20476;-57
2022/10/02 13:25:34;;;;;;;3.88;2.20;;;15.50;99.90;;;;;;5057761;28;20048;-56
2022/10/02 13:28:12;;;;;;;13.80;7.60;;;16.00;99.90;;;;;;5043554;28;20043;-57
2022/10/02 13:31:06;;;;;;;4.85;2.90;;;16.10;99.90;;;;;;5043551;28;20468;-57
2022/10/02 13:34:24;;;;;;;7.25;2.40;;;16.20;99.90;;;;;;5044306;28;20039;-57
2022/10/02 13:37:21;;;;;;;6.80;2.28;;;16.20;99.90;;;;;;5044220;28;20036;-55
2022/10/02 13:40:06;;;;;;;5.35;2.00;;;15.90;99.90;;;;;;5043533;28;20029;-56
2022/10/02 13:43:04;;;;;;;8.55;2.40;;;15.30;99.90;;;;;;5044747;28;20041;-56
2022/10/02 13:45:46;;;;;;;7.70;3.60;;;14.90;99.90;;;;;;5044333;28;20091;-55
2022/10/02 13:48:41;;;;;;;6.88;3.65;;;14.50;99.90;;;;;;5044029;28;20036;-55
2022/10/02 13:51:15;;;;;;;3.25;2.10;;;14.40;99.90;;;;;;5043516;28;20023;-55
2022/10/02 13:54:02;;;;;;;14.23;7.47;;;14.00;99.90;;;;;;5041371;28;20079;-56
2022/10/02 13:56:42;;;;;;;6.47;3.70;;;13.90;99.90;;;;;;5043934;28;20021;-57
2022/10/02 13:59:14;;;;;;;1.38;1.27;;;13.60;99.90;;;;;;5042515;28;20032;-57
2022/10/02 14:02:00;;;;;;;1.05;0.98;;;13.40;99.90;;;;;;5043511;28;20025;-56
2022/10/02 14:04:29;;;;;;;1.10;0.98;;;13.20;99.90;;;;;;5050943;28;20373;-57
2022/10/02 14:07:22;;;;;;;2.15;2.00;;;13.10;99.90;;;;;;5042739;28;20533;-57
2022/10/02 14:10:06;;;;;;;1.85;1.50;;;13.00;99.90;;;;;;5051395;28;20041;-57